createdAt,value
2018-10-05T00:02:13.831Z,101438.24
2018-10-05T00:04:41.869Z,101432.33
2018-10-05T00:07:09.921Z,101433.10
2018-10-05T00:09:37.969Z,101437.69
2018-10-05T00:12:06.010Z,101431.77
2018-10-05T00:14:34.085Z,101436.03
2018-10-05T00:17:02.154Z,101431.89
2018-10-05T00:19:30.257Z,101436.64
2018-10-05T00:21:58.313Z,101439.58
2018-10-05T00:24:26.379Z,101440.42
2018-10-05T00:26:54.427Z,101442.03
2018-10-05T00:29:22.491Z,101443.00
2018-10-05T00:31:50.548Z,101434.06
2018-10-05T00:34:18.565Z,101436.75
2018-10-05T00:36:46.706Z,101434.66
2018-10-05T00:39:14.935Z,101432.77
2018-10-05T00:41:42.986Z,101430.11
2018-10-05T00:44:10.996Z,101428.38
2018-10-05T00:46:39.018Z,101428.95
2018-10-05T00:49:07.071Z,101423.08
2018-10-05T00:51:35.090Z,101424.59
2018-10-05T00:54:03.130Z,101419.28
2018-10-05T00:56:31.205Z,101418.86
2018-10-05T00:58:59.277Z,101413.56
2018-10-05T01:01:27.338Z,101409.42
2018-10-05T01:03:55.405Z,101410.25
2018-10-05T01:06:23.451Z,101407.69
2018-10-05T01:08:51.511Z,101402.09
2018-10-05T01:11:19.564Z,101407.47
2018-10-05T01:13:47.638Z,101400.11
2018-10-05T01:16:15.658Z,101400.76
2018-10-05T01:18:43.742Z,101398.39
2018-10-05T01:21:11.791Z,101398.20
2018-10-05T01:23:39.835Z,101397.27
2018-10-05T01:26:07.890Z,101395.55
2018-10-05T01:28:36.068Z,101395.66
2018-10-05T01:31:04.099Z,101403.22
2018-10-05T01:33:32.136Z,101399.52
2018-10-05T01:36:00.165Z,101399.80
2018-10-05T01:38:28.235Z,101401.23
2018-10-05T01:40:56.281Z,101399.42
2018-10-05T01:43:24.352Z,101398.77
2018-10-05T01:45:52.374Z,101392.33
2018-10-05T01:48:20.453Z,101393.81
2018-10-05T01:50:48.464Z,101391.16
2018-10-05T01:53:16.509Z,101385.30
2018-10-05T01:55:44.517Z,101386.42
2018-10-05T01:58:12.589Z,101383.39
2018-10-05T02:00:40.638Z,101383.50
2018-10-05T02:03:08.729Z,101383.02
2018-10-05T02:05:36.815Z,101376.01
2018-10-05T02:08:04.897Z,101378.27
2018-10-05T02:10:32.930Z,101376.36
2018-10-05T02:13:00.961Z,101380.50
2018-10-05T02:15:29.026Z,101378.59
2018-10-05T02:17:57.085Z,101378.59
2018-10-05T02:20:25.215Z,101374.72
2018-10-05T02:22:53.239Z,101375.28
2018-10-05T02:25:21.319Z,101369.90
2018-10-05T02:27:49.383Z,101370.38
2018-10-05T02:30:17.445Z,101369.53
2018-10-05T02:32:45.514Z,101373.96
2018-10-05T02:35:13.550Z,101358.61
2018-10-05T02:37:41.571Z,101365.69
2018-10-05T02:40:09.604Z,101360.69
2018-10-05T02:42:37.713Z,101360.77
2018-10-05T02:45:05.725Z,101361.16
2018-10-05T02:47:33.793Z,101359.07
2018-10-05T02:50:01.850Z,101355.46
2018-10-05T02:52:30.014Z,101362.27
2018-10-05T02:54:58.049Z,101355.17
2018-10-05T02:57:26.095Z,101359.23
2018-10-05T02:59:54.180Z,101357.50
2018-10-05T03:02:32.527Z,101356.25
2018-10-05T03:05:00.574Z,101356.99
2018-10-05T03:07:29.562Z,101353.94
2018-10-05T03:09:58.188Z,101347.31
2018-10-05T03:12:26.337Z,101343.67
2018-10-05T03:14:54.405Z,101339.38
2018-10-05T03:17:22.466Z,101337.09
2018-10-05T03:19:50.614Z,101335.06
2018-10-05T03:22:18.610Z,101340.21
2018-10-05T03:24:46.710Z,101331.86
2018-10-05T03:27:14.736Z,101332.27
2018-10-05T03:29:43.050Z,101327.82
2018-10-05T03:32:11.363Z,101323.22
2018-10-05T03:34:39.461Z,101320.91
2018-10-05T03:37:07.506Z,101322.92
2018-10-05T03:39:35.542Z,101319.17
2018-10-05T03:42:03.569Z,101316.20
2018-10-05T03:44:31.613Z,101320.42
2018-10-05T03:46:59.681Z,101315.13
2018-10-05T03:49:27.766Z,101309.66
2018-10-05T03:51:55.810Z,101313.25
2018-10-05T03:54:24.741Z,101312.85
2018-10-05T03:56:52.812Z,101313.07
2018-10-05T03:59:21.095Z,101315.72
2018-10-05T04:01:49.190Z,101312.89
2018-10-05T04:04:17.234Z,101314.58
2018-10-05T04:06:45.262Z,101314.98
2018-10-05T04:09:13.293Z,101312.05
2018-10-05T04:11:41.414Z,101314.17
2018-10-05T04:14:09.450Z,101311.95
2018-10-05T04:16:37.485Z,101314.60
2018-10-05T04:19:05.585Z,101309.22
2018-10-05T04:21:33.597Z,101314.91
2018-10-05T04:24:01.698Z,101308.12
2018-10-05T04:26:29.872Z,101306.42
2018-10-05T04:28:57.942Z,101305.95
2018-10-05T04:31:26.079Z,101302.28
2018-10-05T04:33:54.106Z,101305.70
2018-10-05T04:36:22.158Z,101304.52
2018-10-05T04:38:50.195Z,101299.70
2018-10-05T04:41:18.280Z,101302.78
2018-10-05T04:43:46.238Z,101308.37
2018-10-05T04:46:14.284Z,101303.80
2018-10-05T04:48:42.359Z,101306.50
2018-10-05T04:51:10.443Z,101307.17
2018-10-05T04:53:38.479Z,101307.48
2018-10-05T04:56:06.573Z,101302.55
2018-10-05T04:58:34.621Z,101304.58
2018-10-05T05:01:02.649Z,101301.64
2018-10-05T05:03:30.726Z,101300.02
2018-10-05T05:05:58.779Z,101296.05
2018-10-05T05:08:26.885Z,101298.02
2018-10-05T05:10:54.934Z,101292.36
2018-10-05T05:13:23.034Z,101295.30
2018-10-05T05:15:51.078Z,101293.20
2018-10-05T05:18:19.111Z,101289.52
2018-10-05T05:20:47.192Z,101289.04
2018-10-05T05:23:15.233Z,101288.42
2018-10-05T05:25:43.342Z,101282.27
2018-10-05T05:28:11.365Z,101284.32
2018-10-05T05:30:39.462Z,101280.83
2018-10-05T05:33:07.488Z,101275.30
2018-10-05T05:35:35.535Z,101285.23
2018-10-05T05:38:03.570Z,101276.77
2018-10-05T05:40:31.773Z,101286.73
2018-10-05T05:42:59.809Z,101285.55
2018-10-05T05:45:27.877Z,101283.08
2018-10-05T05:47:55.953Z,101293.66
2018-10-05T05:50:23.997Z,101297.16
2018-10-05T05:52:52.281Z,101294.97
2018-10-05T05:55:20.309Z,101296.24
2018-10-05T05:57:48.425Z,101302.89
2018-10-05T06:00:16.570Z,101294.12
2018-10-05T06:02:44.640Z,101305.54
2018-10-05T06:05:12.713Z,101308.14
2018-10-05T06:07:40.761Z,101308.50
2018-10-05T06:10:08.810Z,101303.45
2018-10-05T06:12:36.846Z,101310.93
2018-10-05T06:15:05.166Z,101303.41
2018-10-05T06:17:33.194Z,101306.42
2018-10-05T06:20:01.345Z,101313.70
2018-10-05T06:22:30.595Z,101321.74
2018-10-05T06:24:58.433Z,101323.24
2018-10-05T06:27:26.529Z,101319.53
2018-10-05T06:29:54.499Z,101327.63
2018-10-05T06:32:22.611Z,101321.92
2018-10-05T06:34:50.656Z,101324.68
2018-10-05T06:37:18.722Z,101323.88
2018-10-05T06:39:47.666Z,101320.22
2018-10-05T06:42:15.790Z,101321.55
2018-10-05T06:44:43.757Z,101316.54
2018-10-05T06:47:11.830Z,101320.40
2018-10-05T06:49:40.049Z,101320.23
2018-10-05T06:52:08.101Z,101324.87
2018-10-05T06:54:36.196Z,101324.58
2018-10-05T06:57:04.336Z,101327.27
2018-10-05T06:59:32.414Z,101333.02
2018-10-05T07:02:01.607Z,101327.28
2018-10-05T07:04:29.546Z,101332.97
2018-10-05T07:06:57.613Z,101333.66
2018-10-05T07:09:26.755Z,101336.88
2018-10-05T07:11:54.850Z,101325.63
2018-10-05T07:14:22.911Z,101324.40
2018-10-05T07:16:51.012Z,101320.55
2018-10-05T07:19:19.054Z,101327.20
2018-10-05T07:21:47.160Z,101317.12
2018-10-05T07:24:15.377Z,101322.54
2018-10-05T07:26:43.706Z,101316.41
2018-10-05T07:29:11.762Z,101308.36
2018-10-05T07:31:39.838Z,101303.34
2018-10-05T07:34:08.939Z,101309.06
2018-10-05T07:36:36.990Z,101308.66
2018-10-05T07:39:07.107Z,101316.28
2018-10-05T07:41:35.166Z,101309.91
2018-10-05T07:44:03.202Z,101310.06
2018-10-05T07:46:31.321Z,101309.08
2018-10-05T07:48:59.350Z,101303.98
2018-10-05T07:51:27.412Z,101308.48
2018-10-05T07:53:55.446Z,101307.19
2018-10-05T07:56:23.514Z,101312.88
2018-10-05T07:58:51.575Z,101307.20
2018-10-05T08:01:19.602Z,101313.39
2018-10-05T08:03:47.710Z,101305.88
2018-10-05T08:06:15.921Z,101309.62
2018-10-05T08:08:44.073Z,101307.84
2018-10-05T08:11:12.205Z,101308.58
2018-10-05T08:13:40.280Z,101300.52
2018-10-05T08:16:08.398Z,101305.30
2018-10-05T08:18:36.529Z,101306.88
2018-10-05T08:21:04.604Z,101299.17
2018-10-05T08:23:32.622Z,101302.28
2018-10-05T08:26:00.833Z,101304.02
2018-10-05T08:28:28.893Z,101308.19
2018-10-05T08:30:56.979Z,101294.53
2018-10-05T08:33:25.022Z,101297.38
2018-10-05T08:35:53.166Z,101296.80
2018-10-05T08:38:21.250Z,101295.81
2018-10-05T08:40:49.269Z,101297.38
2018-10-05T08:43:17.291Z,101299.94
2018-10-05T08:45:45.338Z,101292.14
2018-10-05T08:48:13.369Z,101294.04
2018-10-05T08:50:41.430Z,101291.23
2018-10-05T08:53:09.489Z,101287.76
2018-10-05T08:55:37.557Z,101290.63
2018-10-05T08:58:05.626Z,101284.29
2018-10-05T09:00:33.907Z,101285.81
2018-10-05T09:03:01.895Z,101271.20
2018-10-05T09:05:30.016Z,101277.69
2018-10-05T09:07:58.114Z,101277.61
2018-10-05T09:10:26.253Z,101275.20
2018-10-05T09:12:54.323Z,101271.63
2018-10-05T09:15:22.360Z,101265.25
2018-10-05T09:17:50.475Z,101253.82
2018-10-05T09:20:18.555Z,101253.82
2018-10-05T09:22:46.697Z,101257.69
2018-10-05T09:25:14.778Z,101250.02
2018-10-05T09:27:42.928Z,101248.82
2018-10-05T09:30:12.172Z,101246.52
2018-10-05T09:32:40.270Z,101245.20
2018-10-05T09:35:08.304Z,101247.88
2018-10-05T09:37:36.720Z,101242.05
2018-10-05T09:40:04.658Z,101236.82
2018-10-05T09:42:32.744Z,101226.78
2018-10-05T09:45:00.903Z,101228.21
2018-10-05T09:47:28.887Z,101222.69
2018-10-05T09:49:57.068Z,101218.31
2018-10-05T09:52:25.544Z,101214.84
2018-10-05T09:54:53.509Z,101205.89
2018-10-05T09:57:21.571Z,101208.92
2018-10-05T09:59:49.705Z,101200.72
2018-10-05T10:02:22.903Z,101196.15
2018-10-05T10:04:51.245Z,101191.14
2018-10-05T10:07:21.312Z,101188.91
2018-10-05T10:09:49.416Z,101189.37
2018-10-05T10:12:17.557Z,101181.75
2018-10-05T10:14:45.600Z,101174.30
2018-10-05T10:17:13.671Z,101170.79
2018-10-05T10:19:41.779Z,101174.55
2018-10-05T10:22:09.829Z,101171.50
2018-10-05T10:24:37.878Z,101166.60
2018-10-05T10:27:05.943Z,101178.41
2018-10-05T10:29:34.194Z,101173.69
2018-10-05T10:32:02.215Z,101162.37
2018-10-05T10:34:30.293Z,101162.04
2018-10-05T10:36:58.330Z,101152.31
2018-10-05T10:39:26.477Z,101141.00
2018-10-05T10:41:54.559Z,101140.33
2018-10-05T10:44:22.787Z,101140.16
2018-10-05T10:46:50.833Z,101135.78
2018-10-05T10:49:18.876Z,101133.17
2018-10-05T10:51:46.986Z,101123.66
2018-10-05T10:54:15.041Z,101123.17
2018-10-05T10:56:43.210Z,101115.88
2018-10-05T10:59:11.394Z,101113.02
2018-10-05T11:01:39.615Z,101109.64
2018-10-05T11:04:07.886Z,101108.92
2018-10-05T11:06:35.910Z,101111.47
2018-10-05T11:09:04.829Z,101107.64
2018-10-05T11:11:32.911Z,101105.88
2018-10-05T11:14:01.054Z,101103.08
2018-10-05T11:16:29.195Z,101094.02
2018-10-05T11:18:57.263Z,101092.99
2018-10-05T11:21:26.270Z,101082.36
2018-10-05T11:23:54.317Z,101082.41
2018-10-05T11:26:22.339Z,101083.55
2018-10-05T11:28:50.364Z,101084.48
2018-10-05T11:31:18.595Z,101072.80
2018-10-05T11:33:46.650Z,101074.77
2018-10-05T11:36:14.779Z,101076.70
2018-10-05T11:41:10.148Z,101067.24
2018-10-05T11:43:38.259Z,101055.68
2018-10-05T11:46:06.313Z,101051.11
2018-10-05T11:48:34.389Z,101056.64
2018-10-05T11:51:02.493Z,101040.09
2018-10-05T11:53:30.570Z,101040.74
2018-10-05T11:55:58.772Z,101047.43
2018-10-05T11:58:26.958Z,101038.29
2018-10-05T12:00:55.018Z,101030.92
2018-10-05T12:03:23.176Z,101030.98
2018-10-05T12:05:51.142Z,101028.98
2018-10-05T12:08:19.330Z,101015.58
2018-10-05T12:10:47.408Z,101008.50
2018-10-05T12:13:15.457Z,101005.12
2018-10-05T12:15:43.590Z,101001.03
2018-10-05T12:18:11.817Z,100999.17
2018-10-05T12:20:39.925Z,100996.50
2018-10-05T12:23:08.077Z,100989.58
2018-10-05T12:25:36.184Z,100991.58
2018-10-05T12:28:04.230Z,100977.47
2018-10-05T12:30:32.297Z,100978.31
2018-10-05T12:33:00.377Z,100973.78
2018-10-05T12:35:28.434Z,100971.22
2018-10-05T12:37:56.499Z,100970.05
2018-10-05T12:40:24.550Z,100966.33
2018-10-05T12:42:52.654Z,100956.34
2018-10-05T12:45:20.718Z,100954.98
2018-10-05T12:47:49.819Z,100952.09
2018-10-05T12:50:17.994Z,100953.70
2018-10-05T12:52:46.048Z,100949.81
2018-10-05T12:55:14.094Z,100949.50
2018-10-05T12:57:42.158Z,100934.36
2018-10-05T13:00:10.198Z,100936.73
2018-10-05T13:02:38.297Z,100939.00
2018-10-05T13:05:06.442Z,100937.17
2018-10-05T13:07:34.539Z,100938.03
2018-10-05T13:10:02.644Z,100935.00
2018-10-05T13:12:30.718Z,100935.34
2018-10-05T13:14:58.913Z,100932.69
2018-10-05T13:17:27.010Z,100929.66
2018-10-05T13:19:55.053Z,100929.30
2018-10-05T13:22:23.266Z,100922.76
2018-10-05T13:24:51.608Z,100919.52
2018-10-05T13:27:19.631Z,100910.78
2018-10-05T13:29:47.892Z,100909.55
2018-10-05T13:32:15.970Z,100914.75
2018-10-05T13:34:44.091Z,100906.02
2018-10-05T13:37:12.210Z,100902.69
2018-10-05T13:39:40.201Z,100908.42
2018-10-05T13:42:08.386Z,100896.58
2018-10-05T13:44:36.452Z,100895.05
2018-10-05T13:47:04.677Z,100890.87
2018-10-05T13:49:32.786Z,100882.31
2018-10-05T13:52:00.914Z,100891.55
2018-10-05T13:54:29.026Z,100886.23
2018-10-05T13:56:57.077Z,100885.60
2018-10-05T13:59:25.103Z,100884.77
2018-10-05T14:01:53.229Z,100887.17
2018-10-05T14:04:21.306Z,100877.42
2018-10-05T14:06:49.366Z,100883.42
2018-10-05T14:09:17.427Z,100878.55
2018-10-05T14:11:45.572Z,100878.03
2018-10-05T14:14:13.629Z,100872.31
2018-10-05T14:16:41.750Z,100869.55
2018-10-05T14:19:10.877Z,100855.02
2018-10-05T14:21:38.944Z,100859.22
2018-10-05T14:24:06.998Z,100849.79
2018-10-05T14:26:35.014Z,100856.22
2018-10-05T14:29:03.042Z,100846.30
2018-10-05T14:31:31.189Z,100837.94
2018-10-05T14:33:59.293Z,100839.38
2018-10-05T14:36:27.328Z,100833.99
2018-10-05T14:38:55.400Z,100825.43
2018-10-05T14:41:23.509Z,100821.53
2018-10-05T14:43:51.571Z,100819.81
2018-10-05T14:46:19.646Z,100820.16
2018-10-05T14:48:47.760Z,100816.79
2018-10-05T14:51:15.798Z,100822.19
2018-10-05T14:53:43.830Z,100805.14
2018-10-05T14:56:11.982Z,100807.64
2018-10-05T14:58:40.071Z,100801.97
2018-10-05T15:01:08.157Z,100791.31
2018-10-05T15:03:36.225Z,100798.53
2018-10-05T15:06:04.283Z,100789.55
2018-10-05T15:08:32.326Z,100784.64
2018-10-05T15:11:00.413Z,100786.48
2018-10-05T15:13:28.475Z,100782.08
2018-10-05T15:15:56.545Z,100779.73
2018-10-05T15:18:24.579Z,100780.41
2018-10-05T15:20:52.866Z,100775.73
2018-10-05T15:23:21.093Z,100771.22
2018-10-05T15:25:49.252Z,100773.40
2018-10-05T15:28:17.380Z,100766.85
2018-10-05T15:30:45.426Z,100758.81
2018-10-05T15:33:13.503Z,100753.91
2018-10-05T15:35:41.557Z,100747.02
2018-10-05T15:38:09.613Z,100750.56
2018-10-05T15:40:37.663Z,100748.39
2018-10-05T15:43:05.761Z,100743.66
2018-10-05T15:45:33.857Z,100742.82
2018-10-05T15:48:01.953Z,100748.86
2018-10-05T15:50:30.014Z,100743.47
2018-10-05T15:52:58.054Z,100737.58
2018-10-05T15:55:26.089Z,100733.70
2018-10-05T15:57:54.149Z,100733.87
2018-10-05T16:00:22.193Z,100737.73
2018-10-05T16:02:50.249Z,100739.39
2018-10-05T16:05:18.369Z,100739.42
2018-10-05T16:07:46.382Z,100732.30
2018-10-05T16:10:14.423Z,100740.16
2018-10-05T16:12:42.519Z,100726.38
2018-10-05T16:15:10.590Z,100721.72
2018-10-05T16:17:38.614Z,100724.23
2018-10-05T16:20:06.709Z,100715.51
2018-10-05T16:22:34.811Z,100719.36
2018-10-05T16:25:02.833Z,100717.88
2018-10-05T16:27:30.946Z,100720.89
2018-10-05T16:29:58.978Z,100719.20
2018-10-05T16:32:27.051Z,100719.27
2018-10-05T16:34:55.069Z,100718.92
2018-10-05T16:37:23.192Z,100722.06
2018-10-05T16:39:51.262Z,100719.98
2018-10-05T16:42:19.332Z,100719.15
2018-10-05T16:44:47.382Z,100721.59
2018-10-05T16:47:15.519Z,100714.19
2018-10-05T16:49:43.668Z,100713.32
2018-10-05T16:52:11.722Z,100706.09
2018-10-05T16:54:39.802Z,100706.61
2018-10-05T16:57:07.875Z,100711.33
2018-10-05T16:59:36.011Z,100709.58
2018-10-05T17:02:04.325Z,100711.84
2018-10-05T17:04:33.530Z,100709.16
2018-10-05T17:07:01.683Z,100704.48
2018-10-05T17:09:29.785Z,100699.84
2018-10-05T17:11:57.827Z,100700.48
2018-10-05T17:14:26.957Z,100699.41
2018-10-05T17:16:54.994Z,100701.70
2018-10-05T17:19:23.102Z,100700.59
2018-10-05T17:21:51.141Z,100694.41
2018-10-05T17:24:19.205Z,100695.03
2018-10-05T17:26:47.383Z,100686.81
2018-10-05T17:29:15.523Z,100688.57
2018-10-05T17:31:43.590Z,100693.73
2018-10-05T17:34:11.781Z,100692.53
2018-10-05T17:36:39.857Z,100683.33
2018-10-05T17:39:09.130Z,100691.86
2018-10-05T17:41:37.206Z,100690.84
2018-10-05T17:44:05.272Z,100688.23
2018-10-05T17:46:33.348Z,100683.77
2018-10-05T17:49:01.466Z,100673.99
2018-10-05T17:51:29.570Z,100677.78
2018-10-05T17:53:57.686Z,100674.65
2018-10-05T17:56:25.810Z,100667.12
2018-10-05T17:58:54.042Z,100673.68
2018-10-05T18:01:22.178Z,100663.20
2018-10-05T18:03:50.265Z,100663.30
2018-10-05T18:06:18.309Z,100664.88
2018-10-05T18:08:46.378Z,100657.39
2018-10-05T18:11:14.568Z,100655.95
2018-10-05T18:13:42.670Z,100650.13
2018-10-05T18:16:10.742Z,100647.41
2018-10-05T18:18:38.810Z,100642.48
2018-10-05T18:21:06.852Z,100639.13
2018-10-05T18:23:34.979Z,100636.77
2018-10-05T18:26:03.171Z,100637.08
2018-10-05T18:28:31.196Z,100639.43
2018-10-05T18:30:59.373Z,100640.09
2018-10-05T18:33:27.529Z,100626.73
2018-10-05T18:35:55.609Z,100634.55
2018-10-05T18:38:24.351Z,100637.13
2018-10-05T18:40:52.454Z,100629.10
2018-10-05T18:43:20.549Z,100622.98
2018-10-05T18:45:48.752Z,100624.81
2018-10-05T18:48:16.870Z,100625.51
2018-10-05T18:50:44.982Z,100623.59
2018-10-05T18:53:13.018Z,100619.67
2018-10-05T18:55:41.076Z,100616.30
2018-10-05T18:58:09.117Z,100612.28
2018-10-05T19:00:37.274Z,100612.23
2018-10-05T19:03:05.373Z,100614.88
2018-10-05T19:05:33.433Z,100610.44
2018-10-05T19:08:01.483Z,100608.17
2018-10-05T19:10:29.515Z,100607.09
2018-10-05T19:12:57.649Z,100608.24
2018-10-05T19:15:25.689Z,100607.74
2018-10-05T19:17:53.742Z,100604.02
2018-10-05T19:20:21.794Z,100613.60
2018-10-05T19:22:50.010Z,100610.25
2018-10-05T19:25:18.214Z,100611.66
2018-10-05T19:27:46.296Z,100613.00
2018-10-05T19:30:14.347Z,100609.27
2018-10-05T19:32:42.413Z,100607.77
2018-10-05T19:35:10.488Z,100604.51
2018-10-05T19:37:38.800Z,100604.29
2018-10-05T19:40:07.031Z,100599.11
2018-10-05T19:42:36.102Z,100600.44
2018-10-05T19:45:04.137Z,100599.77
2018-10-05T19:48:35.550Z,100594.06
2018-10-05T19:51:03.631Z,100595.33
2018-10-05T19:53:31.757Z,100597.16
2018-10-05T19:55:59.731Z,100588.45
2018-10-05T19:58:27.761Z,100585.44
2018-10-05T20:00:55.793Z,100594.50
2018-10-05T20:03:23.873Z,100594.61
2018-10-05T20:05:51.938Z,100589.70
2018-10-05T20:08:20.056Z,100589.98
2018-10-05T20:10:48.179Z,100589.58
2018-10-05T20:13:16.205Z,100590.55
2018-10-05T20:15:44.270Z,100589.59
2018-10-05T20:18:12.409Z,100583.45
2018-10-05T20:20:40.378Z,100582.50
2018-10-05T20:23:08.408Z,100583.16
2018-10-05T20:25:36.506Z,100578.93
2018-10-05T20:28:04.538Z,100583.78
2018-10-05T20:30:32.564Z,100577.75
2018-10-05T20:33:00.722Z,100573.64
2018-10-05T20:35:28.770Z,100566.03
2018-10-05T20:37:56.801Z,100562.55
2018-10-05T20:40:24.842Z,100560.98
2018-10-05T20:42:52.873Z,100552.88
2018-10-05T20:45:20.946Z,100550.48
2018-10-05T20:47:50.065Z,100550.22
2018-10-05T20:50:18.158Z,100549.97
2018-10-05T20:52:53.156Z,100545.16
2018-10-05T20:55:21.295Z,100536.84
2018-10-05T20:57:49.347Z,100536.34
2018-10-05T21:00:17.403Z,100530.44
2018-10-05T21:02:45.493Z,100522.00
2018-10-05T21:05:13.538Z,100527.31
2018-10-05T21:07:42.573Z,100526.70
2018-10-05T21:10:10.641Z,100523.06
2018-10-05T21:12:38.736Z,100523.17
2018-10-05T21:15:06.835Z,100529.92
2018-10-05T21:17:35.933Z,100527.51
2018-10-05T21:20:04.188Z,100519.54
2018-10-05T21:22:32.233Z,100525.30
2018-10-05T21:25:00.315Z,100521.17
2018-10-05T21:27:28.384Z,100520.83
2018-10-05T21:29:56.445Z,100521.52
2018-10-05T21:32:24.465Z,100521.56
2018-10-05T21:34:52.497Z,100512.66
2018-10-05T21:37:20.575Z,100515.31
2018-10-05T21:39:48.609Z,100513.00
2018-10-05T21:42:16.681Z,100508.97
2018-10-05T21:44:44.711Z,100513.18
2018-10-05T21:47:12.737Z,100509.20
2018-10-05T21:49:40.791Z,100505.11
2018-10-05T21:52:09.994Z,100509.78
2018-10-05T21:54:38.062Z,100508.34
2018-10-05T21:57:06.283Z,100499.66
2018-10-05T21:59:34.462Z,100501.80
2018-10-05T22:02:02.549Z,100489.52
2018-10-05T22:04:30.581Z,100496.97
2018-10-05T22:06:58.650Z,100492.69
2018-10-05T22:09:26.679Z,100486.80
2018-10-05T22:11:54.763Z,100486.45
2018-10-05T22:14:22.907Z,100481.59
2018-10-05T22:16:51.161Z,100482.80
2018-10-05T22:19:19.266Z,100478.19
2018-10-05T22:21:47.306Z,100473.36
2018-10-05T22:24:15.374Z,100468.41
2018-10-05T22:26:43.445Z,100469.12
2018-10-05T22:29:11.510Z,100469.71
2018-10-05T22:31:39.626Z,100466.69
2018-10-05T22:34:07.857Z,100458.81
2018-10-05T22:36:35.933Z,100452.01
2018-10-05T22:39:04.979Z,100453.31
2018-10-05T22:41:33.014Z,100450.27
2018-10-05T22:44:01.049Z,100455.34
2018-10-05T22:46:29.070Z,100448.95
2018-10-05T22:48:57.245Z,100447.50
2018-10-05T22:51:25.419Z,100450.58
2018-10-05T22:53:53.463Z,100447.24
2018-10-05T22:56:21.506Z,100448.31
2018-10-05T22:58:49.700Z,100446.44
2018-10-05T23:01:17.897Z,100445.50
2018-10-05T23:03:46.069Z,100445.66
2018-10-05T23:06:14.228Z,100432.45
2018-10-05T23:08:42.338Z,100447.05
2018-10-05T23:11:10.486Z,100441.67
2018-10-05T23:13:38.540Z,100434.81
2018-10-05T23:16:06.947Z,100439.78
2018-10-05T23:18:35.143Z,100436.80
2018-10-05T23:21:03.343Z,100436.72
2018-10-05T23:23:31.570Z,100435.28
2018-10-05T23:26:00.631Z,100434.94
2018-10-05T23:28:28.722Z,100433.87
2018-10-05T23:30:56.762Z,100430.23
2018-10-05T23:33:24.950Z,100427.83
2018-10-05T23:35:53.078Z,100430.27
2018-10-05T23:38:21.159Z,100431.60
2018-10-05T23:40:49.190Z,100431.13
2018-10-05T23:43:17.241Z,100426.91
2018-10-05T23:45:45.365Z,100424.51
2018-10-05T23:48:13.444Z,100427.25
2018-10-05T23:50:41.493Z,100423.42
2018-10-05T23:53:09.597Z,100418.86
2018-10-05T23:55:37.717Z,100413.39
2018-10-05T23:58:06.109Z,100412.16
